Terminal Aerodrome Forecast
Issued by NWS Topeka, KS

Home | Current Version | Previous Version | Text Only | Print | Product List | Glossary Off
Versions: 1 2 3 4 5 6 7 8 9 10 11 12 13 14 15 16 17 18 19 20 21 22 23 24 25 26 27

000
FTUS43 KTOP 201615 AAE
TAFTOP
TAF AMD
KTOP 201615Z 2016/2112 32013G20KT P6SM BKN015 OVC035
     FM201800 33013KT P6SM BKN025
     FM202000 34014KT P6SM SCT045
     FM210000 36012KT P6SM SCT100=

USA.gov is the U.S. government's official web portal to all federal, state and local government web resources and services.